Bahias De Huatulco, Mexico

9:59 PM CST on February 07, 2016 (GMT -0600)
Bahias De Huatulco | | Change Station
CLOSE
Current Station
Airport
Location: Bahias de Huatulco,
Elevation: 469 ft
Nearby Weather Stations

Elev 469 ft 15.78 °N, 96.26 °W | Updated 1 hour ago

Mostly Cloudy
Mostly Cloudy
79 °F
Feels Like 79 °F
N
0
Wind Variable Wind from North

Today
High -- | Low -- °F
--% Chance of Precip.
Yesterday
High -- | Low -- °F
Precip. -- in
Pressure 29.96 in
Visibility 7.0 miles
Clouds Mostly Cloudy 20000 ft
Dew Point 68 °F
Humidity 69%
Rainfall 0.00 in
Snow Depth Not available.
6:53 AM 6:25 PM
Waning Crescent, 0% visible
METAR MMBT 080240Z 00000KT 7SM BKN200 26/20 A2996 RMK 8/001 HZY
Pressure 29.96 in
Visibility 7.0 miles
Clouds Mostly Cloudy 20000 ft
Dew Point 68 °F
Humidity 69%
Rainfall 0.00 in
Snow Depth Not available.
6:53 AM 6:25 PM
Waning Crescent, 0% visible
METAR MMBT 080240Z 00000KT 7SM BKN200 26/20 A2996 RMK 8/001 HZY

10-Day Weather Forecast

No radar image for this location.
×

Almanac

Astronomy

Feb. 07, 2016 Rise Set
Actual Time
Civil Twilight
Nautical Twilight
Astronomical Twilight
Moon
Length of Visible Light
Length of Day
Tomorrow will be .
, % of the Moon is Illuminated

Today's Extremes

Country Highs Country Lows

Community

WunderPhotos

Upload Photos

1,891,373 photos uploaded!

WunderBlog® & News

Nearby

Air Quality

  Air Quality AQ Index Pollutant
Not available.

Snow Depth

Station Depth Elevation

Earthquake Activity

City Distance Mag. Time & Date
Minimum magnitude displayed is 2.5.

Coastal Water Temperatures

Place Temperature

Stations

Nearby Weather Stations

Station Location Temp. Windchill Dew Point Humidity Wind Precip. Elev Updated Type